Main page
METAR-TAF:

METAR-TAF

Airports :

Albert – Picardie Airport

Albert, France

latitude: 49-58-21N, longitude: 002-41-29E, elevation: 111 m

Current weather observation

The report was made 16 minutes ago, at 23:00 UTC
Wind 7 kt from the South
Temperature 7°C
Humidity 100%
Pressure 1011 hPa
Visibility: 0550 m
fog

METAR: LFAQ 272300Z AUTO 19007KT 0600 0550 R27/0800N FG VV/// 07/07 Q1011

Time: 00:16 (23:16 UTC)

Forecast

The report was made 5 hours and 46 minutes ago, at 17:30 UTC
Forecast valid from 27 at 17 UTC to 27 at 24 UTC
Wind 7 kt from the South/Southwest
Visibility: 5000 m
Overcast at a height of 300 ft
mist
Temporary
from 27 at 17 UTC to 27 at 20 UTC
Visibility: 0600 m
drizzle, fog
Temporary
from 27 at 21 UTC to 27 at 24 UTC
Visibility: 2000 m
rain

TAF: LFAQ 271730Z 2717/2724 20007KT 5000 BR OVC003 TEMPO 2717/2720 0600 DZ FG VV/// TEMPO 2721/2724 2000 RA

Weather observations and forecasts of more than 4000 airports (METAR and TAF reports).

The available stations are represented by yellow and red dots on the map.

Hover mouse over dot to see the name of the station.

Then click to see weather observations and forecasts.

To change the map : click on the green buttons with a black cross to zoom in, on the green button with a dash to zoom out, or on the green arrows for adjacent maps.


METAR-TAF: